Strathcarron, United Kingdom
Current Conditions -  °F | °C
As of 12:20 PM on Friday 28 Nov 2014 (Local Time) from EGPL Reporting Station
Few Clouds Few Clouds  
Wind Chill: 11°   Ceiling: Unl
Heat Index: 11°   Visibility: 6mi
Dew Point:   Wind: 8mph
Humidity: 82%   Direction: 110°ESE
Pressure: 29.77"   Gusts: NA
Location:  57.41°N, 5.81°W
Report Text: EGPL 281220Z 11007KT 9999 FEW018 11/08 Q1008
Loading
Personal Weather Stations






























Interactive Weather Map New forecast layout! Learn more

10-Day Weather Forecast

Advertisements
Track Severe Weather on mobile